createdAt,value
2023-03-29T00:02:02.211Z,-0.29
2023-03-29T00:04:29.088Z,-0.27
2023-03-29T00:06:55.809Z,-0.28
2023-03-29T00:09:23.506Z,-0.28
2023-03-29T00:11:50.111Z,-0.29
2023-03-29T00:14:16.768Z,-0.29
2023-03-29T00:16:44.881Z,-0.28
2023-03-29T00:19:11.505Z,-0.29
2023-03-29T00:21:38.139Z,-0.28
2023-03-29T00:24:04.971Z,-0.26
2023-03-29T00:26:31.567Z,-0.23
2023-03-29T00:28:58.161Z,-0.23
2023-03-29T00:31:24.756Z,-0.25
2023-03-29T00:33:51.365Z,-0.26
2023-03-29T00:36:18.042Z,-0.26
2023-03-29T00:38:44.567Z,-0.28
2023-03-29T00:41:11.891Z,-0.28
2023-03-29T00:43:55.388Z,-0.27
2023-03-29T00:46:22.692Z,-0.34
2023-03-29T00:48:52.732Z,-0.28
2023-03-29T00:51:21.641Z,-0.31
2023-03-29T00:53:55.415Z,-0.32
2023-03-29T00:56:24.231Z,-0.29
2023-03-29T00:59:00.125Z,-0.28
2023-03-29T01:01:46.940Z,-0.30
2023-03-29T01:04:21.899Z,-0.30
2023-03-29T01:06:59.975Z,-0.37
2023-03-29T01:09:30.440Z,-0.39
2023-03-29T01:12:02.469Z,-0.33
2023-03-29T01:14:40.980Z,-0.39
2023-03-29T01:17:07.622Z,-0.36
2023-03-29T01:19:44.311Z,-0.42
2023-03-29T01:22:49.084Z,-0.39
2023-03-29T01:25:30.425Z,-0.40
2023-03-29T01:28:03.674Z,-0.36
2023-03-29T01:30:48.429Z,-0.37
2023-03-29T01:33:21.339Z,-0.34
2023-03-29T01:36:06.217Z,-0.37
2023-03-29T01:38:51.625Z,-0.37
2023-03-29T01:41:18.452Z,-0.36
2023-03-29T01:44:01.783Z,-0.34
2023-03-29T01:46:45.187Z,-0.38
2023-03-29T01:49:35.967Z,-0.35
2023-03-29T01:52:14.796Z,-0.33
2023-03-29T01:54:55.749Z,-0.32
2023-03-29T01:57:25.144Z,-0.33
2023-03-29T01:59:55.603Z,-0.36
2023-03-29T02:02:27.753Z,-0.31
2023-03-29T02:04:56.154Z,-0.33
2023-03-29T02:07:27.026Z,-0.32
2023-03-29T02:09:54.552Z,-0.30
2023-03-29T02:12:21.374Z,-0.31
2023-03-29T02:14:48.013Z,-0.32
2023-03-29T02:17:22.181Z,-0.30
2023-03-29T02:20:10.205Z,-0.32
2023-03-29T02:23:02.153Z,-0.27
2023-03-29T02:25:29.538Z,-0.28
2023-03-29T02:27:56.903Z,-0.31
2023-03-29T02:30:27.147Z,-0.27
2023-03-29T02:33:29.057Z,-0.28
2023-03-29T02:36:15.415Z,-0.31
2023-03-29T02:38:41.852Z,-0.31
2023-03-29T02:41:10.686Z,-0.32
2023-03-29T02:43:39.630Z,-0.35
2023-03-29T02:46:07.779Z,-0.36
2023-03-29T02:48:37.096Z,-0.37
2023-03-29T02:51:11.698Z,-0.37
2023-03-29T02:53:44.703Z,-0.35
2023-03-29T02:56:11.261Z,-0.36
2023-03-29T02:58:38.733Z,-0.40
2023-03-29T03:01:06.939Z,-0.38
2023-03-29T03:03:33.547Z,-0.36
2023-03-29T03:06:01.682Z,-0.43
2023-03-29T03:08:28.620Z,-0.40
2023-03-29T03:10:55.285Z,-0.43
2023-03-29T03:13:21.845Z,-0.44
2023-03-29T03:15:49.268Z,-0.43
2023-03-29T03:18:16.726Z,-0.39
2023-03-29T03:20:46.929Z,-0.43
2023-03-29T03:23:13.507Z,-0.42
2023-03-29T03:25:40.081Z,-0.47
2023-03-29T03:28:06.688Z,-0.45
2023-03-29T03:30:34.605Z,-0.52
2023-03-29T03:33:01.198Z,-0.48
2023-03-29T03:35:29.623Z,-0.46
2023-03-29T03:37:56.285Z,-0.43
2023-03-29T03:40:22.792Z,-0.45
2023-03-29T03:42:49.380Z,-0.43
2023-03-29T03:45:16.012Z,-0.45
2023-03-29T03:47:42.648Z,-0.44
2023-03-29T03:50:09.680Z,-0.42
2023-03-29T03:52:36.319Z,-0.48
2023-03-29T03:55:03.006Z,-0.46
2023-03-29T03:57:29.607Z,-0.48
2023-03-29T03:59:56.405Z,-0.51
2023-03-29T04:02:23.248Z,-0.55
2023-03-29T04:04:50.014Z,-0.55
2023-03-29T04:07:17.765Z,-0.61
2023-03-29T04:09:45.096Z,-0.60
2023-03-29T04:12:12.156Z,-0.57
2023-03-29T04:14:38.758Z,-0.59
2023-03-29T04:17:05.680Z,-0.62
2023-03-29T04:19:32.277Z,-0.65
2023-03-29T04:21:59.052Z,-0.62
2023-03-29T04:24:25.605Z,-0.60
2023-03-29T04:26:52.193Z,-0.59
2023-03-29T04:29:18.713Z,-0.61
2023-03-29T04:31:45.344Z,-0.59
2023-03-29T04:34:11.978Z,-0.59
2023-03-29T04:36:38.932Z,-0.62
2023-03-29T04:39:07.835Z,-0.61
2023-03-29T04:41:35.169Z,-0.59
2023-03-29T04:44:02.633Z,-0.55
2023-03-29T04:46:29.829Z,-0.60
2023-03-29T04:48:56.590Z,-0.59
2023-03-29T04:51:24.390Z,-0.62
2023-03-29T04:53:51.041Z,-0.54
2023-03-29T04:56:17.720Z,-0.60
2023-03-29T04:58:44.636Z,-0.67
2023-03-29T05:01:11.408Z,-0.67
2023-03-29T05:03:38.025Z,-0.61
2023-03-29T05:06:07.407Z,-0.58
2023-03-29T05:08:35.318Z,-0.61
2023-03-29T05:11:02.247Z,-0.62
2023-03-29T05:13:28.959Z,-0.52
2023-03-29T05:15:57.096Z,-0.52
2023-03-29T05:18:23.801Z,-0.46
2023-03-29T05:20:53.063Z,-0.43
2023-03-29T05:23:20.663Z,-0.40
2023-03-29T05:25:51.296Z,-0.43
2023-03-29T05:28:18.420Z,-0.53
2023-03-29T05:30:46.003Z,-0.47
2023-03-29T05:33:12.751Z,-0.44
2023-03-29T05:35:39.368Z,-0.42
2023-03-29T05:38:06.422Z,-0.40
2023-03-29T05:40:33.604Z,-0.38
2023-03-29T05:43:02.475Z,-0.37
2023-03-29T05:45:29.779Z,-0.32
2023-03-29T05:47:57.622Z,-0.38
2023-03-29T05:50:24.796Z,-0.44
2023-03-29T05:52:51.595Z,-0.45
2023-03-29T05:55:18.522Z,-0.40
2023-03-29T05:57:45.148Z,-0.43
2023-03-29T06:00:31.974Z,-0.45
2023-03-29T06:03:03.704Z,-0.39
2023-03-29T06:05:37.002Z,-0.39
2023-03-29T06:08:03.602Z,-0.33
2023-03-29T06:10:30.146Z,-0.36
2023-03-29T06:12:56.799Z,-0.35
2023-03-29T06:15:24.164Z,-0.32
2023-03-29T06:17:50.734Z,-0.27
2023-03-29T06:20:17.510Z,-0.21
2023-03-29T06:22:46.644Z,-0.15
2023-03-29T06:25:15.348Z,-0.09
2023-03-29T06:27:41.974Z,-0.10
2023-03-29T06:30:08.961Z,-0.03
2023-03-29T06:32:36.159Z,-0.01
2023-03-29T06:35:03.252Z,0.06
2023-03-29T06:37:29.854Z,0.07
2023-03-29T06:39:56.959Z,0.10
2023-03-29T06:42:24.116Z,0.20
2023-03-29T06:44:50.948Z,0.24
2023-03-29T06:47:17.569Z,0.32
2023-03-29T06:49:44.483Z,0.39
2023-03-29T06:52:11.426Z,0.46
2023-03-29T06:54:38.879Z,0.47
2023-03-29T06:57:05.522Z,0.60
2023-03-29T06:59:32.107Z,0.71
2023-03-29T07:01:58.681Z,0.72
2023-03-29T07:04:25.422Z,0.66
2023-03-29T07:07:01.342Z,0.74
2023-03-29T07:09:32.409Z,0.70
2023-03-29T07:12:00.125Z,0.80
2023-03-29T07:14:28.912Z,0.76
2023-03-29T07:16:58.689Z,0.73
2023-03-29T07:19:27.292Z,0.77
2023-03-29T07:21:54.317Z,0.84
2023-03-29T07:24:21.706Z,0.83
2023-03-29T07:27:00.234Z,0.78
2023-03-29T07:29:30.527Z,0.74
2023-03-29T07:31:57.199Z,0.90
2023-03-29T07:34:24.376Z,0.98
2023-03-29T07:36:51.565Z,1.10
2023-03-29T07:39:18.333Z,1.00
2023-03-29T07:41:44.920Z,1.00
2023-03-29T07:44:11.599Z,1.02
2023-03-29T07:46:38.209Z,1.07
2023-03-29T07:49:05.525Z,1.13
2023-03-29T07:51:32.142Z,1.12
2023-03-29T07:53:59.795Z,1.05
2023-03-29T07:56:26.565Z,1.13
2023-03-29T07:58:53.297Z,1.15
2023-03-29T08:01:20.451Z,1.08
2023-03-29T08:03:47.381Z,0.93
2023-03-29T08:06:16.097Z,0.98
2023-03-29T08:08:42.780Z,1.05
2023-03-29T08:11:10.118Z,1.08
2023-03-29T08:13:37.379Z,1.19
2023-03-29T08:16:05.751Z,1.32
2023-03-29T08:18:34.241Z,1.25
2023-03-29T08:21:01.771Z,1.39
2023-03-29T08:23:28.594Z,1.45
2023-03-29T08:25:55.148Z,1.42
2023-03-29T08:28:22.323Z,1.29
2023-03-29T08:30:49.760Z,1.21
2023-03-29T08:33:17.007Z,1.32
2023-03-29T08:35:44.004Z,1.31
2023-03-29T08:38:11.171Z,1.19
2023-03-29T08:40:37.985Z,1.12
